createdAt,value
2018-11-23T00:02:38.552Z,5.70
2018-11-23T00:05:42.718Z,5.70
2018-11-23T00:08:46.867Z,5.60
2018-11-23T00:11:51.056Z,5.60
2018-11-23T00:14:55.310Z,5.60
2018-11-23T00:17:59.459Z,5.60
2018-11-23T00:21:03.622Z,5.60
2018-11-23T00:24:07.769Z,5.60
2018-11-23T00:27:11.936Z,5.60
2018-11-23T00:30:17.668Z,5.50
2018-11-23T00:33:21.829Z,5.50
2018-11-23T00:36:25.997Z,5.50
2018-11-23T00:39:30.153Z,5.50
2018-11-23T00:42:34.328Z,5.50
2018-11-23T00:45:43.083Z,5.50
2018-11-23T00:48:42.665Z,5.50
2018-11-23T00:51:46.841Z,5.40
2018-11-23T00:54:50.993Z,5.40
2018-11-23T00:57:55.166Z,5.40
2018-11-23T01:00:59.318Z,5.40
2018-11-23T01:04:03.498Z,5.40
2018-11-23T01:07:07.669Z,5.40
2018-11-23T01:10:14.098Z,5.50
2018-11-23T01:13:18.261Z,5.40
2018-11-23T01:16:22.413Z,5.50
2018-11-23T01:19:26.569Z,5.50
2018-11-23T01:22:30.734Z,5.50
2018-11-23T01:25:34.881Z,5.50
2018-11-23T01:28:39.045Z,5.50
2018-11-23T01:31:43.267Z,5.50
2018-11-23T01:34:47.429Z,5.50
2018-11-23T01:37:51.602Z,5.40
2018-11-23T01:40:55.607Z,5.40
2018-11-23T01:43:59.622Z,5.40
2018-11-23T01:47:03.644Z,5.40
2018-11-23T01:50:09.805Z,5.30
2018-11-23T01:53:13.818Z,5.30
2018-11-23T01:56:17.829Z,5.40
2018-11-23T01:59:21.849Z,5.40
2018-11-23T02:02:25.840Z,5.40
2018-11-23T02:05:29.852Z,5.40
2018-11-23T02:08:33.924Z,5.30
2018-11-23T02:11:38.094Z,5.30
2018-11-23T02:14:41.900Z,5.30
2018-11-23T02:17:46.365Z,5.20
2018-11-23T02:20:50.509Z,5.20
2018-11-23T02:23:54.550Z,5.20
2018-11-23T02:26:58.542Z,5.20
2018-11-23T02:30:02.619Z,5.20
2018-11-23T02:33:06.618Z,5.20
2018-11-23T02:36:11.138Z,5.20
2018-11-23T02:39:15.129Z,5.30
2018-11-23T02:42:19.121Z,5.30
2018-11-23T02:45:24.044Z,5.30
2018-11-23T02:48:28.221Z,5.30
2018-11-23T02:51:32.230Z,5.30
2018-11-23T02:54:36.232Z,5.30
2018-11-23T02:57:40.231Z,5.30
2018-11-23T03:00:44.233Z,5.30
2018-11-23T03:03:48.218Z,5.30
2018-11-23T03:06:52.221Z,5.30
2018-11-23T03:09:56.204Z,5.30
2018-11-23T03:13:00.205Z,5.40
2018-11-23T03:16:04.228Z,5.40
2018-11-23T03:19:08.565Z,5.30
2018-11-23T03:22:12.572Z,5.30
2018-11-23T03:25:16.620Z,5.30
2018-11-23T03:28:20.628Z,5.40
2018-11-23T03:31:25.615Z,5.40
2018-11-23T03:34:29.603Z,5.30
2018-11-23T03:37:33.610Z,5.30
2018-11-23T03:40:37.630Z,5.20
2018-11-23T03:43:41.735Z,5.20
2018-11-23T03:46:45.754Z,5.10
2018-11-23T03:49:49.753Z,5.10
2018-11-23T03:52:53.773Z,5.10
2018-11-23T03:55:57.795Z,5.10
2018-11-23T03:59:01.850Z,5.10
2018-11-23T04:02:06.426Z,5.10
2018-11-23T04:05:10.433Z,5.10
2018-11-23T04:08:14.431Z,5.10
2018-11-23T04:11:18.457Z,5.10
2018-11-23T04:14:22.547Z,5.00
2018-11-23T04:17:26.579Z,4.90
2018-11-23T04:20:30.591Z,4.80
2018-11-23T04:23:34.606Z,4.70
2018-11-23T04:26:38.626Z,4.70
2018-11-23T04:29:42.642Z,4.70
2018-11-23T04:32:47.682Z,4.70
2018-11-23T04:35:51.792Z,4.70
2018-11-23T04:38:55.793Z,4.70
2018-11-23T04:41:59.861Z,4.70
2018-11-23T04:45:03.918Z,4.60
2018-11-23T04:48:07.922Z,4.60
2018-11-23T04:51:11.957Z,4.60
2018-11-23T04:54:16.006Z,4.60
2018-11-23T04:57:20.014Z,4.60
2018-11-23T05:00:24.052Z,4.60
2018-11-23T05:03:28.062Z,4.60
2018-11-23T05:06:32.069Z,4.60
2018-11-23T05:09:36.098Z,4.50
2018-11-23T05:12:40.630Z,4.50
2018-11-23T05:15:44.661Z,4.60
2018-11-23T05:18:48.679Z,4.60
2018-11-23T05:21:52.682Z,4.50
2018-11-23T05:24:56.694Z,4.40
2018-11-23T05:28:00.714Z,4.40
2018-11-23T05:31:05.394Z,4.40
2018-11-23T05:34:09.402Z,4.30
2018-11-23T05:37:13.566Z,4.30
2018-11-23T05:40:20.293Z,4.30
2018-11-23T05:43:24.463Z,4.30
2018-11-23T05:46:35.306Z,4.40
2018-11-23T05:49:40.556Z,4.40
2018-11-23T05:52:48.004Z,4.40
2018-11-23T05:55:52.130Z,4.40
2018-11-23T05:58:56.150Z,4.40
2018-11-23T06:02:00.167Z,4.50
2018-11-23T06:05:04.466Z,4.50
2018-11-23T06:08:08.481Z,4.50
2018-11-23T06:11:12.501Z,4.50
2018-11-23T06:14:16.500Z,4.50
2018-11-23T06:17:20.563Z,4.50
2018-11-23T06:20:25.811Z,4.60
2018-11-23T06:23:29.815Z,4.60
2018-11-23T06:26:33.997Z,4.60
2018-11-23T06:29:38.029Z,4.50
2018-11-23T06:32:53.389Z,4.60
2018-11-23T06:35:57.476Z,4.50
2018-11-23T06:39:01.498Z,4.50
2018-11-23T06:42:05.862Z,4.50
2018-11-23T06:45:10.408Z,4.50
2018-11-23T06:48:14.430Z,4.40
2018-11-23T06:51:18.439Z,4.40
2018-11-23T06:54:22.497Z,4.40
2018-11-23T06:57:26.502Z,4.40
2018-11-23T07:00:30.505Z,4.40
2018-11-23T07:03:34.525Z,4.50
2018-11-23T07:06:38.529Z,4.50
2018-11-23T07:09:42.547Z,4.60
2018-11-23T07:12:46.564Z,4.50
2018-11-23T07:15:50.576Z,4.60
2018-11-23T07:18:54.594Z,4.60
2018-11-23T07:21:58.601Z,4.60
2018-11-23T07:25:02.600Z,4.60
2018-11-23T07:28:06.628Z,4.60
2018-11-23T07:31:10.627Z,4.70
2018-11-23T07:34:14.646Z,4.70
2018-11-23T07:37:18.683Z,4.70
2018-11-23T07:40:35.869Z,4.60
2018-11-23T07:43:39.945Z,4.60
2018-11-23T07:46:43.963Z,4.70
2018-11-23T07:49:48.219Z,4.60
2018-11-23T07:52:52.234Z,4.70
2018-11-23T07:55:56.233Z,4.60
2018-11-23T07:59:00.287Z,4.70
2018-11-23T08:02:04.695Z,4.70
2018-11-23T08:05:09.948Z,4.80
2018-11-23T08:08:14.924Z,4.80
2018-11-23T08:11:18.949Z,4.80
2018-11-23T08:14:23.302Z,4.80
2018-11-23T08:17:27.345Z,4.90
2018-11-23T08:20:31.336Z,4.90
2018-11-23T08:23:35.358Z,5.00
2018-11-23T08:26:39.374Z,5.00
2018-11-23T08:29:43.378Z,5.00
2018-11-23T08:32:47.489Z,5.00
2018-11-23T08:35:51.608Z,5.00
2018-11-23T08:38:55.601Z,5.00
2018-11-23T08:41:59.609Z,5.10
2018-11-23T08:45:04.052Z,5.10
2018-11-23T08:48:08.076Z,5.20
2018-11-23T08:51:12.309Z,5.20
2018-11-23T08:54:16.329Z,5.20
2018-11-23T08:57:20.345Z,5.30
2018-11-23T09:00:26.512Z,5.30
2018-11-23T09:03:30.516Z,5.40
2018-11-23T09:06:34.568Z,5.40
2018-11-23T09:09:38.572Z,5.50
2018-11-23T09:12:43.369Z,5.50
2018-11-23T09:15:47.409Z,5.60
2018-11-23T09:18:51.416Z,5.60
2018-11-23T09:21:55.438Z,5.60
2018-11-23T09:24:59.446Z,5.60
2018-11-23T09:28:03.465Z,5.60
2018-11-23T09:31:07.498Z,5.60
2018-11-23T09:34:11.501Z,5.60
2018-11-23T09:37:15.510Z,5.60
2018-11-23T09:40:23.915Z,5.70
2018-11-23T09:43:27.922Z,5.70
2018-11-23T09:46:31.962Z,5.80
2018-11-23T09:49:35.987Z,5.80
2018-11-23T09:52:40.275Z,5.90
2018-11-23T09:55:44.324Z,5.90
2018-11-23T09:58:48.355Z,6.00
2018-11-23T10:01:52.359Z,6.00
2018-11-23T10:04:56.484Z,6.10
2018-11-23T10:08:02.694Z,6.10
2018-11-23T10:11:06.722Z,6.20
2018-11-23T10:14:10.925Z,6.10
2018-11-23T10:17:14.959Z,6.10
2018-11-23T10:20:20.403Z,6.10
2018-11-23T10:23:24.393Z,6.10
2018-11-23T10:26:28.410Z,6.20
2018-11-23T10:29:32.422Z,6.20
2018-11-23T10:32:36.431Z,6.30
2018-11-23T10:35:40.441Z,6.40
2018-11-23T10:38:44.449Z,6.40
2018-11-23T10:41:48.463Z,6.40
2018-11-23T10:44:52.481Z,6.40
2018-11-23T10:47:57.449Z,6.40
2018-11-23T10:51:01.459Z,6.40
2018-11-23T10:54:05.522Z,6.50
2018-11-23T10:57:09.521Z,6.40
2018-11-23T11:00:20.884Z,6.40
2018-11-23T11:03:33.384Z,6.40
2018-11-23T11:06:42.785Z,6.50
2018-11-23T11:09:46.796Z,6.50
2018-11-23T11:12:50.803Z,6.40
2018-11-23T11:15:54.835Z,6.40
2018-11-23T11:18:58.847Z,6.40
2018-11-23T11:22:02.850Z,6.50
2018-11-23T11:25:07.846Z,6.50
2018-11-23T11:28:11.854Z,6.50
2018-11-23T11:31:15.867Z,6.60
2018-11-23T11:34:19.894Z,6.60
2018-11-23T11:37:23.894Z,6.60
2018-11-23T11:40:27.913Z,6.70
2018-11-23T11:43:31.933Z,6.70
2018-11-23T11:46:36.037Z,6.70
2018-11-23T11:49:40.030Z,6.70
2018-11-23T11:52:45.500Z,6.70
2018-11-23T11:55:49.526Z,6.70
2018-11-23T11:58:53.537Z,6.70
2018-11-23T12:01:57.547Z,6.70
2018-11-23T12:05:01.562Z,6.70
2018-11-23T12:08:05.918Z,6.80
2018-11-23T12:11:09.919Z,6.80
2018-11-23T12:14:13.938Z,6.70
2018-11-23T12:17:17.945Z,6.70
2018-11-23T12:20:23.395Z,6.70
2018-11-23T12:23:27.411Z,6.70
2018-11-23T12:26:31.425Z,6.70
2018-11-23T12:29:35.465Z,6.70
2018-11-23T12:32:39.861Z,6.80
2018-11-23T12:35:43.878Z,6.80
2018-11-23T12:38:47.894Z,6.80
2018-11-23T12:41:51.905Z,6.90
2018-11-23T12:44:55.917Z,6.90
2018-11-23T12:47:59.944Z,7.00
2018-11-23T12:51:03.938Z,6.90
2018-11-23T12:54:07.941Z,7.00
2018-11-23T12:57:11.965Z,6.90
2018-11-23T13:00:19.403Z,6.90
2018-11-23T13:03:23.400Z,6.90
2018-11-23T13:06:27.418Z,6.90
2018-11-23T13:09:31.430Z,6.90
2018-11-23T13:12:35.426Z,6.80
2018-11-23T13:15:39.691Z,6.80
2018-11-23T13:18:43.702Z,6.80
2018-11-23T13:21:47.708Z,6.80
2018-11-23T13:24:52.075Z,6.70
2018-11-23T13:27:56.401Z,6.70
2018-11-23T13:31:00.420Z,6.70
2018-11-23T13:34:04.410Z,6.60
2018-11-23T13:37:08.427Z,6.60
2018-11-23T13:40:14.513Z,6.50
2018-11-23T13:43:18.563Z,6.50
2018-11-23T13:46:22.561Z,6.50
2018-11-23T13:49:26.861Z,6.40
2018-11-23T13:52:30.889Z,6.40
2018-11-23T13:55:34.891Z,6.40
2018-11-23T13:58:38.995Z,6.40
2018-11-23T14:01:43.029Z,6.40
2018-11-23T14:04:47.069Z,6.40
2018-11-23T14:07:52.590Z,6.40
2018-11-23T14:10:56.592Z,6.40
2018-11-23T14:14:00.622Z,6.40
2018-11-23T14:17:04.637Z,6.40
2018-11-23T14:20:10.414Z,6.40
2018-11-23T14:23:14.400Z,6.40
2018-11-23T14:26:18.410Z,6.40
2018-11-23T14:29:22.446Z,6.50
2018-11-23T14:32:26.468Z,6.50
2018-11-23T14:35:31.473Z,6.50
2018-11-23T14:38:35.486Z,6.50
2018-11-23T14:41:39.606Z,6.50
2018-11-23T14:44:43.614Z,6.50
2018-11-23T14:47:48.151Z,6.50
2018-11-23T14:50:53.195Z,6.40
2018-11-23T14:53:57.212Z,6.40
2018-11-23T14:57:01.206Z,6.40
2018-11-23T15:00:10.145Z,6.30
2018-11-23T15:03:14.162Z,6.30
2018-11-23T15:06:18.169Z,6.40
2018-11-23T15:09:22.202Z,6.30
2018-11-23T15:12:26.189Z,6.40
2018-11-23T15:15:31.558Z,6.40
2018-11-23T15:18:35.581Z,6.40
2018-11-23T15:21:39.586Z,6.30
2018-11-23T15:24:43.666Z,6.30
2018-11-23T15:27:47.689Z,6.20
2018-11-23T15:30:51.711Z,6.10
2018-11-23T15:33:55.721Z,6.10
2018-11-23T15:36:59.737Z,6.00
2018-11-23T15:40:03.767Z,6.00
2018-11-23T15:43:09.310Z,5.90
2018-11-23T15:46:13.342Z,5.80
2018-11-23T15:49:17.343Z,5.80
2018-11-23T15:52:21.366Z,5.80
2018-11-23T15:55:27.734Z,5.90
2018-11-23T15:58:31.730Z,6.00
2018-11-23T16:01:35.743Z,6.00
2018-11-23T16:04:39.780Z,6.10
2018-11-23T16:07:44.074Z,6.10
2018-11-23T16:10:48.139Z,6.10
2018-11-23T16:13:52.141Z,6.00
2018-11-23T16:16:56.181Z,6.00
2018-11-23T16:20:00.186Z,6.00
2018-11-23T16:23:05.613Z,6.10
2018-11-23T16:26:09.625Z,6.10
2018-11-23T16:29:13.679Z,6.10
2018-11-23T16:32:17.695Z,6.10
2018-11-23T16:35:23.203Z,6.10
2018-11-23T16:38:27.219Z,6.10
2018-11-23T16:41:31.235Z,6.10
2018-11-23T16:44:35.252Z,6.10
2018-11-23T16:47:39.323Z,6.20
2018-11-23T16:50:43.898Z,6.20
2018-11-23T16:53:47.929Z,6.20
2018-11-23T16:56:51.987Z,6.10
2018-11-23T16:59:56.016Z,6.10
2018-11-23T17:03:02.531Z,6.20
2018-11-23T17:06:06.589Z,6.10
2018-11-23T17:09:10.640Z,6.00
2018-11-23T17:12:14.670Z,6.00
2018-11-23T17:15:20.230Z,5.90
2018-11-23T17:18:24.262Z,5.80
2018-11-23T17:21:28.319Z,5.80
2018-11-23T17:24:32.347Z,5.80
2018-11-23T17:27:36.394Z,5.80
2018-11-23T17:30:40.557Z,5.70
2018-11-23T17:33:44.604Z,5.70
2018-11-23T17:36:48.618Z,5.70
2018-11-23T17:39:52.649Z,5.70
2018-11-23T17:42:56.978Z,5.60
2018-11-23T17:46:00.985Z,5.60
2018-11-23T17:49:05.028Z,5.60
2018-11-23T17:52:09.050Z,5.60
2018-11-23T17:55:13.722Z,5.60
2018-11-23T17:58:17.745Z,5.60
2018-11-23T18:01:21.780Z,5.60
2018-11-23T18:04:25.848Z,5.60
2018-11-23T18:07:29.865Z,5.60
2018-11-23T18:10:34.625Z,5.60
2018-11-23T18:13:38.672Z,5.50
2018-11-23T18:16:42.666Z,5.50
2018-11-23T18:19:46.722Z,5.50
2018-11-23T18:22:51.502Z,5.50
2018-11-23T18:25:55.546Z,5.40
2018-11-23T18:28:59.569Z,5.40
2018-11-23T18:32:03.595Z,5.40
2018-11-23T18:35:09.842Z,5.40
2018-11-23T18:38:13.887Z,5.30
2018-11-23T18:41:17.930Z,5.30
2018-11-23T18:44:21.959Z,5.30
2018-11-23T18:47:25.994Z,5.20
2018-11-23T18:50:30.020Z,5.20
2018-11-23T18:53:34.046Z,5.20
2018-11-23T18:56:38.082Z,5.10
2018-11-23T18:59:42.134Z,5.10
2018-11-23T19:02:47.172Z,5.10
2018-11-23T19:05:51.210Z,5.00
2018-11-23T19:08:55.254Z,5.00
2018-11-23T19:11:59.299Z,5.00
2018-11-23T19:15:03.401Z,4.90
2018-11-23T19:18:07.485Z,4.90
2018-11-23T19:21:12.217Z,4.90
2018-11-23T19:24:16.254Z,4.90
2018-11-23T19:27:20.278Z,4.90
2018-11-23T19:30:28.570Z,4.90
2018-11-23T19:33:29.234Z,4.90
2018-11-23T19:36:33.267Z,4.90
2018-11-23T19:39:37.298Z,4.90
2018-11-23T19:42:41.399Z,4.90
2018-11-23T19:45:45.426Z,4.90
2018-11-23T19:48:49.453Z,4.80
2018-11-23T19:51:53.474Z,4.80
2018-11-23T19:54:57.511Z,4.80
2018-11-23T19:58:01.530Z,4.70
2018-11-23T20:01:05.867Z,4.70
2018-11-23T20:04:09.898Z,4.60
2018-11-23T20:07:13.965Z,4.60
2018-11-23T20:10:18.875Z,4.50
2018-11-23T20:13:22.910Z,4.50
2018-11-23T20:16:26.967Z,4.40
2018-11-23T20:19:31.020Z,4.40
2018-11-23T20:22:35.091Z,4.40
2018-11-23T20:25:39.127Z,4.40
2018-11-23T20:28:43.203Z,4.40
2018-11-23T20:31:47.310Z,4.40
2018-11-23T20:34:51.346Z,4.40
2018-11-23T20:37:55.375Z,4.30
2018-11-23T20:40:59.385Z,4.30
2018-11-23T20:44:03.426Z,4.30
2018-11-23T20:47:07.532Z,4.30
2018-11-23T20:50:13.591Z,4.20
2018-11-23T20:53:17.619Z,4.20
2018-11-23T20:56:21.647Z,4.20
2018-11-23T20:59:25.689Z,4.20
2018-11-23T21:02:29.718Z,4.20
2018-11-23T21:05:33.724Z,4.20
2018-11-23T21:08:37.751Z,4.30
2018-11-23T21:11:41.789Z,4.20
2018-11-23T21:14:45.821Z,4.30
2018-11-23T21:17:49.882Z,4.30
2018-11-23T21:20:53.912Z,4.30
2018-11-23T21:23:57.942Z,4.30
2018-11-23T21:27:01.998Z,4.30
2018-11-23T21:30:12.119Z,4.40
2018-11-23T21:33:16.170Z,4.50
2018-11-23T21:36:20.202Z,4.50
2018-11-23T21:39:24.250Z,4.60
2018-11-23T21:42:28.354Z,4.70
2018-11-23T21:45:32.376Z,4.70
2018-11-23T21:48:36.421Z,4.80
2018-11-23T21:51:40.466Z,4.80
2018-11-23T21:54:44.489Z,4.90
2018-11-23T21:57:48.587Z,4.90
2018-11-23T22:00:53.173Z,4.90
2018-11-23T22:03:56.653Z,5.00
2018-11-23T22:07:00.698Z,5.00
2018-11-23T22:10:10.454Z,4.90
2018-11-23T22:13:14.487Z,4.90
2018-11-23T22:16:18.537Z,4.90
2018-11-23T22:19:22.566Z,4.90
2018-11-23T22:22:26.597Z,5.00
2018-11-23T22:25:30.626Z,5.00
2018-11-23T22:28:34.672Z,5.00
2018-11-23T22:31:38.699Z,5.00
2018-11-23T22:34:42.721Z,4.90
2018-11-23T22:37:46.774Z,4.80
2018-11-23T22:40:50.799Z,4.70
2018-11-23T22:43:54.886Z,4.60
2018-11-23T22:46:59.677Z,4.60
2018-11-23T22:50:03.953Z,4.60
2018-11-23T22:53:07.995Z,4.50
2018-11-23T22:56:12.029Z,4.50
2018-11-23T22:59:16.050Z,4.50
2018-11-23T23:02:20.372Z,4.60
2018-11-23T23:05:24.765Z,4.60
2018-11-23T23:08:28.852Z,4.60
2018-11-23T23:11:32.871Z,4.70
2018-11-23T23:14:37.483Z,4.70
2018-11-23T23:17:41.834Z,4.70
2018-11-23T23:20:45.867Z,4.70
2018-11-23T23:23:49.887Z,4.80
2018-11-23T23:26:53.928Z,4.80
2018-11-23T23:29:57.956Z,4.90
2018-11-23T23:33:01.984Z,4.90
2018-11-23T23:36:06.004Z,4.90
2018-11-23T23:39:10.123Z,4.90
2018-11-23T23:42:14.177Z,4.90
2018-11-23T23:45:18.691Z,4.80
2018-11-23T23:48:22.781Z,4.80
2018-11-23T23:51:26.870Z,4.80
2018-11-23T23:54:30.884Z,4.80
2018-11-23T23:57:34.960Z,4.90
